Time;durP1;ratioP1;P1;durP2;ratioP2;P2;SDS_P1;SDS_P2;PMS_P1;PMS_P2;Temp;Humidity;BMP_temperature;BMP_pressure;BME280_temperature;BME280_humidity;BME280_pressure;Samples;Min_cycle;Max_cycle;Signal;HPM_P1;HPM_P2
2023/08/07 00:00:56;;;;;;;6.47;5.17;;;15.10;98.60;;;;;;6156366;23;20252;-86
2023/08/07 00:03:21;;;;;;;5.17;4.60;;;15.10;98.60;;;;;;6108646;23;20021;-86
2023/08/07 00:05:55;;;;;;;5.97;4.83;;;15.10;98.80;;;;;;6132439;23;20279;-86
2023/08/07 00:08:20;;;;;;;8.68;5.30;;;15.10;99.00;;;;;;6135558;23;20248;-86
2023/08/07 00:10:48;;;;;;;6.47;4.80;;;15.10;99.00;;;;;;6110737;23;20056;-87
2023/08/07 00:13:13;;;;;;;5.38;4.88;;;15.10;99.20;;;;;;6136131;23;20340;-86
2023/08/07 00:15:39;;;;;;;8.50;5.72;;;15.00;99.40;;;;;;6135599;23;20021;-86
2023/08/07 00:18:05;;;;;;;7.23;4.83;;;15.10;99.40;;;;;;6159124;23;20020;-86
2023/08/07 00:20:30;;;;;;;6.28;4.97;;;15.10;99.30;;;;;;6135011;23;20311;-86
2023/08/07 00:22:56;;;;;;;6.80;4.87;;;15.10;99.30;;;;;;6135096;23;20021;-86
2023/08/07 00:25:22;;;;;;;5.60;4.50;;;15.10;99.20;;;;;;6135739;23;20693;-86
2023/08/07 00:27:49;;;;;;;5.95;4.88;;;15.10;99.30;;;;;;6159440;23;20017;-87
2023/08/07 00:30:15;;;;;;;8.75;5.65;;;15.10;99.40;;;;;;6135965;23;20400;-86
2023/08/07 00:32:40;;;;;;;5.80;4.23;;;15.10;99.40;;;;;;6134861;23;20048;-86
2023/08/07 00:35:08;;;;;;;6.03;4.80;;;15.10;99.60;;;;;;6134238;23;20264;-86
2023/08/07 00:37:34;;;;;;;6.20;4.38;;;15.10;99.70;;;;;;6135654;23;20385;-86
2023/08/07 00:39:59;;;;;;;5.57;4.07;;;15.10;99.60;;;;;;6110325;23;20024;-86
2023/08/07 00:42:25;;;;;;;5.67;4.70;;;15.10;99.60;;;;;;6135235;23;20080;-86
2023/08/07 00:44:51;;;;;;;6.57;4.30;;;15.10;99.70;;;;;;6134293;23;20307;-87
2023/08/07 00:47:16;;;;;;;6.57;4.43;;;15.10;99.70;;;;;;6111330;23;20334;-86
2023/08/07 00:49:43;;;;;;;5.53;4.90;;;15.10;99.80;;;;;;6135284;23;20020;-86
2023/08/07 00:52:09;;;;;;;5.03;4.38;;;15.00;99.50;;;;;;6134171;23;20013;-86
2023/08/07 00:54:35;;;;;;;;;;;15.00;99.30;;;;;;6111158;23;20024;-86
2023/08/07 00:57:10;;;;;;;6.35;4.60;;;15.00;99.90;;;;;;6109977;23;19916;-86
2023/08/07 00:59:36;;;;;;;6.93;4.53;;;14.90;99.30;;;;;;6135128;23;20079;-85
2023/08/07 01:02:02;;;;;;;6.43;5.22;;;14.90;99.10;;;;;;6110563;23;20025;-86
2023/08/07 01:04:28;;;;;;;7.40;4.85;;;14.90;99.10;;;;;;6111082;23;20040;-86
2023/08/07 01:06:54;;;;;;;5.05;4.55;;;14.90;99.40;;;;;;6134731;23;20096;-87
2023/08/07 01:09:20;;;;;;;6.47;4.70;;;14.80;99.40;;;;;;6159570;23;20453;-86
2023/08/07 01:11:56;;;;;;;5.97;3.92;;;14.80;99.40;;;;;;6135295;23;20013;-86
2023/08/07 01:14:36;;;;;;;7.05;4.32;;;14.80;99.50;;;;;;6159479;23;20021;-86
2023/08/07 01:17:05;;;;;;;5.82;4.35;;;14.70;99.50;;;;;;6134470;23;20451;-86
2023/08/07 01:19:31;;;;;;;4.68;4.05;;;14.70;99.80;;;;;;6134601;23;20025;-86
2023/08/07 01:22:10;;;;;;;;;;;14.70;99.90;;;;;;6135275;23;20028;-86
2023/08/07 01:24:37;;;;;;;7.20;4.30;;;14.60;99.90;;;;;;6159770;23;19916;-86
2023/08/07 01:27:25;;;;;;;6.07;4.03;;;14.60;99.90;;;;;;6134154;23;20052;-86
2023/08/07 01:29:54;;;;;;;7.50;4.63;;;14.60;99.90;;;;;;6134632;23;20019;-86
2023/08/07 01:32:32;;;;;;;5.85;4.50;;;14.60;99.90;;;;;;6158696;23;20020;-86
2023/08/07 01:35:01;;;;;;;6.10;4.40;;;14.00;99.90;;;;;;6158519;23;20028;-87
2023/08/07 01:37:33;;;;;;;6.32;4.07;;;14.60;99.90;;;;;;6158852;23;20052;-86
2023/08/07 01:40:03;;;;;;;5.30;3.63;;;14.50;99.90;;;;;;6159027;23;20039;-87
2023/08/07 01:42:29;;;;;;;4.82;3.80;;;14.50;99.90;;;;;;6159162;23;20023;-86
2023/08/07 01:44:55;;;;;;;4.22;3.83;;;14.50;99.90;;;;;;6159445;23;20103;-86
2023/08/07 01:47:21;;;;;;;5.20;3.77;;;14.50;99.90;;;;;;6109603;23;20019;-86
2023/08/07 01:49:46;;;;;;;6.70;3.77;;;14.40;99.90;;;;;;6086312;23;20248;-86
2023/08/07 01:52:13;;;;;;;4.67;3.57;;;14.50;99.90;;;;;;6133645;23;20039;-86
2023/08/07 01:54:38;;;;;;;6.57;4.05;;;14.40;99.90;;;;;;6159048;23;20350;-86
2023/08/07 01:57:04;;;;;;;6.70;3.47;;;14.40;99.90;;;;;;6158278;23;20013;-86
2023/08/07 01:59:30;;;;;;;5.68;3.58;;;14.40;99.90;;;;;;6110035;23;20017;-85
2023/08/07 02:01:56;;;;;;;7.40;3.23;;;14.30;99.90;;;;;;6133969;23;20484;-86
2023/08/07 02:04:21;;;;;;;4.77;3.10;;;14.30;99.90;;;;;;6109820;23;20091;-85
2023/08/07 02:06:47;;;;;;;6.83;2.87;;;14.30;99.90;;;;;;6159007;23;20017;-86
2023/08/07 02:09:13;;;;;;;7.47;3.20;;;14.30;99.90;;;;;;6133548;23;20032;-85
2023/08/07 02:11:38;;;;;;;7.47;3.00;;;14.30;99.90;;;;;;6133825;23;20028;-86
2023/08/07 02:14:04;;;;;;;7.03;3.33;;;14.30;99.90;;;;;;6109117;23;20024;-86
2023/08/07 02:16:30;;;;;;;6.93;3.63;;;14.30;99.90;;;;;;6158991;23;20437;-85
2023/08/07 02:18:55;;;;;;;29.67;5.57;;;14.30;99.90;;;;;;6109607;23;20017;-86
2023/08/07 02:21:21;;;;;;;9.10;3.17;;;14.40;99.90;;;;;;6109457;23;20017;-85
2023/08/07 02:23:47;;;;;;;8.87;3.60;;;14.40;99.90;;;;;;6110054;23;20024;-86
2023/08/07 02:26:13;;;;;;;7.10;3.13;;;14.40;99.90;;;;;;6133817;23;20449;-87
2023/08/07 02:28:38;;;;;;;9.43;3.42;;;14.40;99.90;;;;;;6110115;23;20017;-85
2023/08/07 02:31:04;;;;;;;9.77;3.10;;;14.40;99.90;;;;;;6109355;23;20017;-86
2023/08/07 02:33:30;;;;;;;9.40;3.40;;;14.30;99.90;;;;;;6085295;23;20021;-85
2023/08/07 02:35:56;;;;;;;6.53;3.53;;;14.40;99.90;;;;;;6109619;23;20024;-86
2023/08/07 02:38:22;;;;;;;11.20;3.92;;;14.30;99.90;;;;;;6133525;23;20021;-86
2023/08/07 02:40:48;;;;;;;8.93;3.25;;;14.40;99.90;;;;;;6133884;23;20060;-85
2023/08/07 02:43:13;;;;;;;8.70;3.00;;;14.30;99.90;;;;;;6109272;23;20092;-86
2023/08/07 02:45:39;;;;;;;6.20;2.50;;;14.30;99.90;;;;;;6109599;23;20248;-85
2023/08/07 02:48:05;;;;;;;10.30;3.10;;;14.30;99.90;;;;;;6085578;23;20028;-87
2023/08/07 02:50:32;;;;;;;11.63;3.05;;;14.30;99.90;;;;;;6109639;23;20017;-85
2023/08/07 02:53:01;;;;;;;14.50;3.30;;;14.30;99.90;;;;;;6134149;23;20017;-86
2023/08/07 02:55:27;;;;;;;10.88;3.45;;;14.30;99.90;;;;;;6132756;23;20585;-86
2023/08/07 02:57:53;;;;;;;11.68;5.10;;;14.30;99.90;;;;;;6158542;23;20091;-85
2023/08/07 03:00:19;;;;;;;9.50;3.67;;;14.20;99.90;;;;;;6085144;23;20021;-85
2023/08/07 03:02:44;;;;;;;7.50;3.20;;;14.20;99.90;;;;;;6133814;23;20716;-86
2023/08/07 03:05:10;;;;;;;7.13;2.63;;;14.20;99.90;;;;;;6108858;23;20249;-86
2023/08/07 03:07:36;;;;;;;8.70;3.72;;;14.20;99.90;;;;;;6109507;23;20013;-85
2023/08/07 03:10:02;;;;;;;9.43;3.00;;;14.20;99.90;;;;;;6133797;23;20028;-85
2023/08/07 03:12:27;;;;;;;7.82;2.88;;;14.20;99.90;;;;;;6133171;23;20522;-85
2023/08/07 03:14:53;;;;;;;9.23;2.87;;;14.10;99.90;;;;;;6109324;23;20017;-85
2023/08/07 03:17:20;;;;;;;6.70;3.17;;;14.20;99.90;;;;;;6133251;23;20044;-85
2023/08/07 03:19:46;;;;;;;6.43;3.17;;;14.10;99.90;;;;;;6158343;23;20013;-85
2023/08/07 03:22:12;;;;;;;11.95;4.30;;;14.10;99.90;;;;;;6133290;23;20025;-86
2023/08/07 03:24:38;;;;;;;13.88;4.10;;;14.10;99.90;;;;;;6158186;23;20021;-85
2023/08/07 03:27:04;;;;;;;9.55;3.95;;;14.10;99.90;;;;;;6109482;23;20020;-85
2023/08/07 03:29:30;;;;;;;8.30;3.60;;;14.10;99.90;;;;;;6108725;23;20021;-85
2023/08/07 03:31:56;;;;;;;9.13;3.33;;;14.10;99.90;;;;;;6133856;23;20468;-85
2023/08/07 03:34:22;;;;;;;7.40;3.65;;;14.10;99.90;;;;;;6132953;23;20709;-86
2023/08/07 03:36:47;;;;;;;11.40;3.70;;;14.10;99.90;;;;;;6133549;23;20453;-86
2023/08/07 03:39:13;;;;;;;10.15;3.60;;;14.10;99.90;;;;;;6157765;23;20057;-87
2023/08/07 03:41:39;;;;;;;11.43;3.38;;;14.20;99.90;;;;;;6133750;23;20014;-86
2023/08/07 03:44:06;;;;;;;8.95;2.88;;;14.20;99.90;;;;;;6157953;23;20017;-85
2023/08/07 03:46:32;;;;;;;6.68;2.90;;;14.10;99.90;;;;;;6133150;23;20808;-85
2023/08/07 03:48:58;;;;;;;9.80;2.58;;;14.10;99.90;;;;;;6133186;23;20017;-85
2023/08/07 03:51:24;;;;;;;9.03;3.20;;;14.10;99.90;;;;;;6133363;23;20048;-85
2023/08/07 03:53:49;;;;;;;7.38;3.08;;;14.10;99.90;;;;;;6132961;23;20023;-86
2023/08/07 03:56:15;;;;;;;9.77;3.10;;;14.10;99.90;;;;;;6133231;23;20052;-88
2023/08/07 03:58:41;;;;;;;11.87;4.00;;;14.10;99.90;;;;;;6109098;23;20013;-85
2023/08/07 04:01:08;;;;;;;8.02;2.70;;;14.10;99.90;;;;;;6158347;23;20017;-86
2023/08/07 04:03:33;;;;;;;15.07;3.83;;;14.10;99.90;;;;;;6133144;23;20021;-85
2023/08/07 04:06:01;;;;;;;5.93;2.67;;;14.10;99.90;;;;;;6133813;23;20028;-85
2023/08/07 04:08:27;;;;;;;14.82;4.20;;;14.10;99.90;;;;;;6108825;23;20426;-85
2023/08/07 04:11:03;;;;;;;8.25;3.20;;;14.10;99.90;;;;;;6133883;23;20017;-84
2023/08/07 04:13:30;;;;;;;5.83;2.97;;;14.10;99.90;;;;;;6157711;23;20017;-85
2023/08/07 04:15:56;;;;;;;8.43;3.63;;;14.10;99.90;;;;;;6109455;23;20248;-84
2023/08/07 04:18:22;;;;;;;9.05;3.00;;;14.00;99.90;;;;;;6132748;23;20454;-85
2023/08/07 04:20:55;;;;;;;6.22;2.83;;;14.10;99.90;;;;;;6109829;23;20017;-85
2023/08/07 04:23:22;;;;;;;4.90;2.58;;;14.10;99.90;;;;;;6109265;23;20026;-86
2023/08/07 04:25:48;;;;;;;5.47;2.70;;;14.10;99.90;;;;;;6109731;23;20458;-85
2023/08/07 04:28:14;;;;;;;6.88;2.60;;;14.10;99.90;;;;;;6133571;23;20013;-85
2023/08/07 04:30:41;;;;;;;8.07;3.00;;;14.20;99.90;;;;;;6132074;23;20016;-85
2023/08/07 04:33:07;;;;;;;4.80;2.75;;;14.20;99.90;;;;;;6157764;23;20088;-85
2023/08/07 04:35:33;;;;;;;8.68;3.08;;;14.20;99.90;;;;;;6156274;23;20018;-85
2023/08/07 04:37:59;;;;;;;5.60;3.30;;;14.20;99.90;;;;;;6133727;23;20075;-85
2023/08/07 04:40:25;;;;;;;6.35;2.80;;;14.30;99.90;;;;;;6157268;23;20017;-85
2023/08/07 04:42:51;;;;;;;10.77;3.20;;;14.30;99.90;;;;;;6133234;23;20472;-85
2023/08/07 04:45:16;;;;;;;4.93;2.80;;;14.30;99.90;;;;;;6156713;23;20017;-85
2023/08/07 04:47:42;;;;;;;13.13;4.43;;;14.30;99.90;;;;;;6157310;23;20020;-85
2023/08/07 04:50:08;;;;;;;5.90;3.07;;;14.30;99.90;;;;;;6109232;23;20443;-85
2023/08/07 04:52:37;;;;;;;7.10;3.53;;;14.30;99.90;;;;;;6132314;23;20028;-85
2023/08/07 04:55:04;;;;;;;8.88;3.28;;;14.30;99.90;;;;;;6134938;23;20020;-85
2023/08/07 04:57:29;;;;;;;;;;;14.30;99.90;;;;;;6134628;23;20389;-86
2023/08/07 04:59:55;;;;;;;11.55;3.67;;;14.30;99.90;;;;;;6159537;23;19916;-85
2023/08/07 05:02:21;;;;;;;14.93;4.97;;;14.30;99.90;;;;;;6086614;23;20025;-84
2023/08/07 05:04:46;;;;;;;8.87;4.43;;;14.30;99.90;;;;;;6159238;23;20024;-84
2023/08/07 05:07:12;;;;;;;14.03;3.87;;;14.40;99.90;;;;;;6160290;23;20052;-85
2023/08/07 05:09:38;;;;;;;7.47;3.87;;;14.40;99.90;;;;;;6159169;23;20382;-85
2023/08/07 05:12:05;;;;;;;16.00;4.30;;;14.40;99.90;;;;;;6160154;23;20244;-85
2023/08/07 05:14:31;;;;;;;12.40;3.63;;;14.40;99.90;;;;;;6133859;23;20028;-85
2023/08/07 05:16:56;;;;;;;10.50;4.23;;;14.50;99.90;;;;;;6135135;23;20021;-85
2023/08/07 05:19:22;;;;;;;11.33;4.30;;;14.50;99.90;;;;;;6086939;23;20256;-85
2023/08/07 05:21:50;;;;;;;10.20;3.97;;;14.40;99.90;;;;;;6134511;23;20035;-85
2023/08/07 05:24:17;;;;;;;12.07;4.38;;;14.40;99.90;;;;;;6159610;23;20276;-85
2023/08/07 05:26:42;;;;;;;;;;;14.40;99.90;;;;;;6110397;23;20464;-84
2023/08/07 05:29:08;;;;;;;10.75;3.85;;;14.30;99.90;;;;;;6133810;23;19943;-85
2023/08/07 05:31:34;;;;;;;10.60;4.67;;;14.30;99.90;;;;;;6133925;23;20017;-85
2023/08/07 05:34:00;;;;;;;10.77;4.00;;;14.30;99.90;;;;;;6134594;23;20252;-85
2023/08/07 05:36:26;;;;;;;12.68;4.13;;;14.30;99.90;;;;;;6134301;23;20433;-85
2023/08/07 05:38:52;;;;;;;12.00;4.03;;;14.30;99.90;;;;;;6134038;23;20497;-85
2023/08/07 05:41:17;;;;;;;13.32;4.47;;;14.20;99.90;;;;;;6134992;23;20096;-84
2023/08/07 05:43:43;;;;;;;13.57;4.03;;;14.30;99.90;;;;;;6133410;23;20103;-85
2023/08/07 05:46:09;;;;;;;12.45;5.63;;;14.30;99.90;;;;;;6134212;23;20249;-85
2023/08/07 05:48:35;;;;;;;13.40;4.40;;;14.30;99.90;;;;;;6133765;23;20018;-85
2023/08/07 05:51:01;;;;;;;11.80;5.45;;;14.30;99.90;;;;;;6110508;23;20044;-85
2023/08/07 05:53:27;;;;;;;9.57;5.27;;;14.30;99.90;;;;;;6134638;23;20024;-85
2023/08/07 05:55:52;;;;;;;9.90;4.70;;;14.30;99.90;;;;;;6158062;23;20017;-86
2023/08/07 05:58:18;;;;;;;10.63;4.23;;;14.20;99.90;;;;;;6134260;23;20013;-86
2023/08/07 06:00:44;;;;;;;10.57;4.45;;;14.20;99.90;;;;;;6136512;23;20025;-86
2023/08/07 06:03:10;;;;;;;15.15;5.13;;;14.20;99.90;;;;;;6157396;23;20036;-86
2023/08/07 06:05:36;;;;;;;10.40;4.50;;;14.30;99.90;;;;;;6158122;23;20076;-86
2023/08/07 06:08:01;;;;;;;14.50;5.53;;;14.30;99.90;;;;;;6158620;23;20510;-86
2023/08/07 06:10:27;;;;;;;15.57;5.27;;;14.30;99.90;;;;;;6133922;23;20096;-86
2023/08/07 06:12:53;;;;;;;16.98;6.07;;;14.50;99.90;;;;;;6158035;23;20768;-86
2023/08/07 06:15:19;;;;;;;11.73;3.97;;;14.70;99.90;;;;;;6134552;23;20029;-86
2023/08/07 06:17:45;;;;;;;11.68;5.68;;;14.70;99.90;;;;;;6133494;23;20017;-87
2023/08/07 06:20:14;;;;;;;10.07;4.20;;;14.70;99.90;;;;;;6110079;23;20086;-86
2023/08/07 06:22:40;;;;;;;12.68;4.85;;;14.60;99.90;;;;;;6158274;23;20021;-87
2023/08/07 06:25:09;;;;;;;11.10;4.78;;;14.60;99.90;;;;;;6158722;23;20405;-86
2023/08/07 06:27:40;;;;;;;13.32;4.60;;;14.60;99.90;;;;;;6158685;23;20017;-89
2023/08/07 06:30:07;;;;;;;13.38;4.75;;;14.50;99.90;;;;;;6134510;23;20024;-89
2023/08/07 06:32:34;;;;;;;14.00;5.60;;;14.50;99.90;;;;;;6108882;23;20021;-89
2023/08/07 06:34:59;;;;;;;18.48;4.78;;;14.50;99.90;;;;;;6084754;23;20032;-89
2023/08/07 06:37:25;;;;;;;10.70;4.30;;;14.50;99.90;;;;;;6133403;23;20343;-89
2023/08/07 06:39:54;;;;;;;13.75;5.18;;;14.50;99.90;;;;;;6133566;23;20339;-92
2023/08/07 06:42:27;;;;;;;9.75;4.70;;;14.60;99.90;;;;;;6135386;23;20338;-90
2023/08/07 06:44:52;;;;;;;15.02;5.15;;;14.50;99.90;;;;;;6133802;23;20025;-89
2023/08/07 06:47:18;;;;;;;20.38;5.35;;;14.40;99.90;;;;;;6134627;23;20075;-92
2023/08/07 06:49:46;;;;;;;9.83;4.23;;;14.40;99.90;;;;;;6109870;23;20315;-91
2023/08/07 06:52:15;;;;;;;13.18;4.72;;;14.40;99.90;;;;;;6085686;23;20302;-90
2023/08/07 06:54:43;;;;;;;10.20;3.95;;;14.30;99.90;;;;;;6134881;23;20338;-90
2023/08/07 06:57:09;;;;;;;12.70;4.25;;;14.40;99.90;;;;;;6134513;23;20382;-91
2023/08/07 06:59:35;;;;;;;12.77;3.83;;;14.40;99.90;;;;;;6158595;23;20017;-86
2023/08/07 07:02:01;;;;;;;12.73;4.65;;;14.40;99.90;;;;;;6133526;23;20487;-87
2023/08/07 07:04:37;;;;;;;14.93;4.10;;;14.40;99.90;;;;;;6159339;23;20017;-88
2023/08/07 07:07:03;;;;;;;11.63;3.53;;;14.50;99.90;;;;;;6158255;23;20255;-87
2023/08/07 07:09:32;;;;;;;14.45;5.43;;;14.70;99.90;;;;;;6134400;23;20342;-87
2023/08/07 07:11:58;;;;;;;8.90;3.47;;;13.90;99.90;;;;;;6133177;23;20020;-86
2023/08/07 07:14:23;;;;;;;10.18;3.97;;;14.60;99.90;;;;;;6134637;23;20550;-87
2023/08/07 07:16:49;;;;;;;11.52;4.55;;;14.70;99.90;;;;;;6133222;23;20405;-87
2023/08/07 07:19:16;;;;;;;14.75;4.60;;;14.90;99.90;;;;;;6133846;23;20088;-86
2023/08/07 07:21:47;;;;;;;11.25;5.00;;;15.00;99.90;;;;;;6134497;23;20072;-86
2023/08/07 07:24:13;;;;;;;8.32;3.53;;;15.10;99.90;;;;;;6134632;23;20017;-86
2023/08/07 07:26:41;;;;;;;12.90;3.78;;;15.00;99.90;;;;;;6158029;23;20048;-85
2023/08/07 07:29:09;;;;;;;8.07;3.40;;;15.10;99.90;;;;;;6158037;23;20344;-86
2023/08/07 07:31:39;;;;;;;11.82;3.20;;;15.20;99.90;;;;;;6158846;23;20071;-85
2023/08/07 07:34:05;;;;;;;11.35;3.45;;;15.20;99.90;;;;;;6133878;23;20473;-86
2023/08/07 07:36:31;;;;;;;7.20;2.83;;;15.20;99.90;;;;;;6133722;23;20024;-86
2023/08/07 07:38:57;;;;;;;7.05;2.95;;;15.20;99.90;;;;;;6109376;23;20043;-87
2023/08/07 07:41:23;;;;;;;8.55;4.00;;;15.20;99.90;;;;;;6158187;23;20043;-86
2023/08/07 07:43:49;;;;;;;9.40;2.88;;;15.20;99.90;;;;;;6133955;23;20013;-86
2023/08/07 07:46:17;;;;;;;5.75;2.72;;;15.20;99.90;;;;;;6108883;23;20060;-87
2023/08/07 07:48:43;;;;;;;6.15;2.58;;;15.20;99.90;;;;;;6086316;23;20350;-86
2023/08/07 07:51:09;;;;;;;6.50;2.88;;;15.20;99.90;;;;;;6133124;23;20017;-85
2023/08/07 07:53:38;;;;;;;7.18;2.58;;;15.20;99.90;;;;;;6133317;23;20014;-86
2023/08/07 07:56:03;;;;;;;8.77;2.55;;;15.20;99.90;;;;;;6133314;23;20028;-85
2023/08/07 07:58:29;;;;;;;8.43;2.35;;;15.10;99.90;;;;;;6109273;23;20096;-84
2023/08/07 08:00:56;;;;;;;5.07;2.42;;;15.00;99.90;;;;;;6157692;23;20028;-85
2023/08/07 08:03:23;;;;;;;;;;;14.90;99.50;;;;;;6158832;23;20027;-84
2023/08/07 08:05:53;;;;;;;8.50;3.38;;;14.80;98.70;;;;;;6133198;23;19916;-88
2023/08/07 08:08:19;;;;;;;6.20;2.40;;;14.70;99.90;;;;;;6133557;23;20319;-84
2023/08/07 08:10:47;;;;;;;6.53;2.70;;;14.70;99.90;;;;;;6158038;23;20096;-84
2023/08/07 08:13:14;;;;;;;5.70;2.80;;;14.60;99.90;;;;;;6157950;23;20024;-85
2023/08/07 08:15:40;;;;;;;6.63;3.00;;;14.60;99.90;;;;;;6157802;23;20386;-85
2023/08/07 08:18:06;;;;;;;8.17;3.10;;;14.70;99.90;;;;;;6131523;23;20013;-85
2023/08/07 08:20:34;;;;;;;8.17;3.00;;;14.90;99.90;;;;;;6133360;23;20260;-85
2023/08/07 08:23:00;;;;;;;8.48;3.60;;;15.00;99.90;;;;;;6156874;23;20021;-86
2023/08/07 08:25:26;;;;;;;8.10;3.58;;;15.10;99.90;;;;;;6133322;23;20021;-86
2023/08/07 08:27:54;;;;;;;7.97;2.70;;;15.10;99.90;;;;;;6132619;23;20627;-85
2023/08/07 08:30:24;;;;;;;7.82;3.42;;;15.10;99.90;;;;;;6087812;23;20017;-85
2023/08/07 08:32:52;;;;;;;7.88;2.63;;;15.10;99.90;;;;;;6136604;23;20028;-85
2023/08/07 08:35:18;;;;;;;12.38;4.07;;;14.20;98.80;;;;;;6134877;23;20338;-87
2023/08/07 08:37:46;;;;;;;9.55;3.63;;;14.90;98.10;;;;;;6110136;23;20465;-85
2023/08/07 08:40:16;;;;;;;10.60;4.38;;;14.70;99.00;;;;;;6109915;23;20048;-85
2023/08/07 08:42:44;;;;;;;7.55;4.00;;;14.60;99.00;;;;;;6136283;23;20036;-86
2023/08/07 08:45:15;;;;;;;8.43;3.10;;;14.60;99.00;;;;;;6134802;23;20021;-86
2023/08/07 08:47:46;;;;;;;7.38;3.85;;;14.60;99.60;;;;;;6111301;23;20021;-86
2023/08/07 08:50:14;;;;;;;8.18;3.45;;;13.60;99.60;;;;;;6110882;23;20104;-86
2023/08/07 08:52:47;;;;;;;14.55;4.55;;;14.70;99.90;;;;;;6163832;23;20017;-86
2023/08/07 08:55:16;;;;;;;8.73;3.72;;;14.60;99.90;;;;;;6157862;23;20061;-86
2023/08/07 08:57:42;;;;;;;14.45;3.78;;;14.70;99.90;;;;;;6135267;23;20013;-86
2023/08/07 09:00:17;;;;;;;6.95;3.42;;;14.80;99.10;;;;;;6134872;23;20017;-86
2023/08/07 09:02:45;;;;;;;9.50;3.55;;;14.90;97.70;;;;;;6137321;23;20048;-88
2023/08/07 09:05:15;;;;;;;9.40;3.25;;;14.20;95.70;;;;;;6159272;23;20502;-86
2023/08/07 09:07:46;;;;;;;12.63;4.22;;;15.20;93.10;;;;;;6159514;23;20028;-86
2023/08/07 09:10:16;;;;;;;11.05;4.25;;;15.40;91.00;;;;;;6159238;23;20017;-86
2023/08/07 09:13:05;;;;;;;8.98;3.22;;;15.60;90.00;;;;;;6135448;23;20049;-86
2023/08/07 09:15:36;;;;;;;15.65;4.35;;;15.80;77.40;;;;;;6135404;23;20450;-88
2023/08/07 09:18:07;;;;;;;9.05;3.10;;;16.00;76.60;;;;;;6134819;23;20017;-88
2023/08/07 09:20:34;;;;;;;12.77;3.10;;;16.10;68.60;;;;;;6160169;23;20092;-85
2023/08/07 09:23:00;;;;;;;9.52;3.03;;;16.20;49.30;;;;;;6159739;23;20013;-85
2023/08/07 09:25:31;;;;;;;9.15;2.58;;;16.20;16.80;;;;;;6110405;23;20155;-85
2023/08/07 09:27:57;;;;;;;9.88;3.15;;;16.10;1.00;;;;;;6135019;23;20017;-85
2023/08/07 09:30:28;;;;;;;8.45;3.05;;;16.10;4.60;;;;;;6133988;23;20564;-86
2023/08/07 09:32:56;;;;;;;5.97;2.92;;;16.10;5.50;;;;;;6159800;23;20016;-86
2023/08/07 09:35:23;;;;;;;9.50;3.55;;;16.10;2.60;;;;;;6133840;23;20544;-85
2023/08/07 09:37:49;;;;;;;;;;;16.20;2.20;;;;;;6159943;23;20017;-87
2023/08/07 09:40:16;;;;;;;6.32;2.70;;;16.20;1.00;;;;;;6133936;23;19916;-87
2023/08/07 09:42:42;;;;;;;8.50;2.90;;;16.20;1.00;;;;;;6134388;23;20017;-87
2023/08/07 09:45:31;;;;;;;;;;;;;;;;;;;;;
2023/08/07 09:48:01;;;;;;;14.70;3.08;;;16.50;1.00;;;;;;6159766;23;20024;-88
2023/08/07 09:50:31;;;;;;;5.65;2.95;;;16.70;1.00;;;;;;6110046;23;20128;-89
2023/08/07 09:53:00;;;;;;;12.30;3.10;;;16.70;1.00;;;;;;6134891;23;20021;-88
2023/08/07 09:55:26;;;;;;;7.50;3.10;;;16.70;1.00;;;;;;6133414;23;20047;-88
2023/08/07 09:57:52;;;;;;;;;;;15.60;1.00;;;;;;6158527;23;20021;-88
2023/08/07 10:00:21;;;;;;;9.73;2.90;;;16.40;1.00;;;;;;6158862;23;20339;-88
2023/08/07 10:02:50;;;;;;;8.13;3.03;;;16.40;1.00;;;;;;6134483;23;20021;-88
2023/08/07 10:05:19;;;;;;;8.93;2.78;;;16.40;1.00;;;;;;6158404;23;20017;-88
2023/08/07 10:08:15;;;;;;;4.88;3.05;;;16.40;1.00;;;;;;6116344;23;20401;-87
2023/08/07 10:10:44;;;;;;;10.30;3.75;;;16.50;1.00;;;;;;6137198;23;20016;-87
2023/08/07 10:13:13;;;;;;;6.43;3.08;;;16.80;1.00;;;;;;6139832;23;20017;-91
2023/08/07 10:15:41;;;;;;;7.68;3.05;;;16.90;1.00;;;;;;6134848;23;20028;-91
2023/08/07 10:18:12;;;;;;;6.22;3.15;;;16.90;1.00;;;;;;6159815;23;20024;-91
2023/08/07 10:23:37;;;;;;;5.85;2.70;;;16.90;1.00;;;;;;6138896;23;20021;-90
2023/08/07 10:26:11;;;;;;;11.32;3.38;;;16.80;1.00;;;;;;6159347;23;20021;-95
2023/08/07 10:28:40;;;;;;;7.82;3.63;;;16.60;1.00;;;;;;6159937;23;20024;-91
2023/08/07 10:31:13;;;;;;;7.60;3.00;;;16.50;1.00;;;;;;6135702;23;20028;-89
2023/08/07 10:33:44;;;;;;;10.50;4.07;;;16.50;1.00;;;;;;6135580;23;20099;-90
2023/08/07 10:36:12;;;;;;;6.38;2.83;;;16.60;1.00;;;;;;6134706;23;20100;-88
2023/08/07 10:38:47;;;;;;;5.95;2.60;;;16.70;1.00;;;;;;6136224;23;20059;-89
2023/08/07 10:41:15;;;;;;;5.22;2.83;;;16.80;1.00;;;;;;6167995;23;20159;-89
2023/08/07 10:43:43;;;;;;;15.70;3.08;;;16.80;1.00;;;;;;6133909;23;20039;-88
2023/08/07 10:46:14;;;;;;;7.22;2.95;;;16.80;1.00;;;;;;6134749;23;20021;-89
2023/08/07 10:48:46;;;;;;;6.10;2.55;;;16.80;99.90;;;;;;6134444;23;20492;-91
2023/08/07 10:51:17;;;;;;;8.88;3.45;;;16.70;1.00;;;;;;6133196;23;20027;-89
2023/08/07 10:53:51;;;;;;;8.13;3.08;;;16.60;1.00;;;;;;6159083;23;20488;-89
2023/08/07 10:56:31;;;;;;;12.13;2.97;;;16.60;1.00;;;;;;6158497;23;20055;-91
2023/08/07 10:59:00;;;;;;;5.88;2.67;;;16.50;1.00;;;;;;6134548;23;20374;-88
2023/08/07 11:01:29;;;;;;;6.20;2.60;;;16.60;1.00;;;;;;6133344;23;20021;-87
2023/08/07 11:03:56;;;;;;;8.30;2.45;;;16.70;1.00;;;;;;6134762;23;20024;-88
2023/08/07 11:06:34;;;;;;;4.88;2.35;;;16.60;1.00;;;;;;6134098;23;20021;-89
2023/08/07 11:09:03;;;;;;;5.68;2.75;;;16.80;1.00;;;;;;6167071;23;20025;-89
2023/08/07 11:11:44;;;;;;;;;;;;;;;;;;;;;
2023/08/07 11:14:22;;;;;;;9.50;3.75;;;16.90;1.00;;;;;;6159914;23;20019;-92
2023/08/07 11:16:52;;;;;;;7.95;2.90;;;18.30;1.00;;;;;;6109872;23;20057;-83
2023/08/07 11:19:20;;;;;;;8.15;2.55;;;17.70;1.00;;;;;;6157974;23;20017;-90
2023/08/07 11:21:56;;;;;;;7.05;2.83;;;17.80;1.00;;;;;;6110322;23;20013;-87
2023/08/07 11:24:22;;;;;;;6.38;2.58;;;17.80;99.90;;;;;;6133211;23;20021;-88
2023/08/07 11:26:52;;;;;;;6.03;2.97;;;17.80;1.00;;;;;;6134410;23;20052;-87
2023/08/07 11:29:23;;;;;;;7.40;2.70;;;17.90;99.90;;;;;;6134495;23;20020;-89
2023/08/07 11:31:50;;;;;;;6.32;1.90;;;17.80;99.90;;;;;;6110361;23;20056;-88
2023/08/07 11:34:20;;;;;;;5.15;1.50;;;17.80;99.90;;;;;;6134069;23;20021;-90
2023/08/07 11:36:58;;;;;;;;;;;;;;;;;;;;;
2023/08/07 11:39:29;;;;;;;4.53;2.20;;;17.50;99.90;;;;;;6158560;23;20063;-91
2023/08/07 11:41:55;;;;;;;4.65;1.67;;;17.40;99.90;;;;;;6110968;23;20028;-92
2023/08/07 11:44:35;;;;;;;3.42;2.10;;;17.60;99.90;;;;;;6134679;23;20014;-92
2023/08/07 11:47:02;;;;;;;5.25;1.92;;;17.70;99.90;;;;;;6134432;23;20021;-91
2023/08/07 11:49:33;;;;;;;5.70;1.70;;;17.70;99.90;;;;;;6109470;23;20017;-91
2023/08/07 11:52:05;;;;;;;8.68;2.95;;;17.70;99.90;;;;;;6110242;23;20028;-91
2023/08/07 11:54:38;;;;;;;12.40;3.40;;;17.60;99.90;;;;;;6088910;23;20024;-92
2023/08/07 11:57:20;;;;;;;6.75;2.40;;;17.50;99.90;;;;;;6135402;23;20075;-91
2023/08/07 12:05:41;;;;;;;6.88;2.92;;;16.60;99.90;;;;;;6160437;23;20092;-93
2023/08/07 12:08:21;;;;;;;7.40;1.95;;;17.50;99.90;;;;;;6163230;23;20017;-95
2023/08/07 12:11:31;;;;;;;;;;;;;;;;;;;;;
2023/08/07 12:14:02;;;;;;;18.23;2.97;;;17.70;99.90;;;;;;6162980;23;20076;-95
2023/08/07 12:16:45;;;;;;;14.82;2.72;;;17.80;99.90;;;;;;6097024;23;20025;-96
2023/08/07 12:19:47;;;;;;;4.07;1.90;;;17.40;99.90;;;;;;6128015;23;20036;-96
2023/08/07 12:26:25;;;;;;;5.22;2.22;;;17.70;99.90;;;;;;6203309;23;20577;-96
2023/08/07 12:29:51;;;;;;;14.02;2.80;;;17.60;99.90;;;;;;6129348;23;20008;-96
2023/08/07 12:32:35;;;;;;;7.22;2.33;;;17.40;99.90;;;;;;6150164;23;20032;-96
2023/08/07 12:35:11;;;;;;;13.88;3.45;;;16.20;1.00;;;;;;6121287;23;20017;-96
2023/08/07 12:37:58;;;;;;;8.73;3.60;;;17.20;1.00;;;;;;6165565;23;20017;-94
2023/08/07 12:46:40;;;;;;;;;;;;;;;;;;;;;
2023/08/07 12:49:18;;;;;;;11.73;2.47;;;16.40;1.00;;;;;;6060506;23;20019;-94
2023/08/07 12:52:12;;;;;;;12.68;2.42;;;17.00;1.00;;;;;;6075447;23;20054;-95
2023/08/07 12:54:57;;;;;;;6.88;3.40;;;17.00;1.00;;;;;;6033109;23;20109;-96
2023/08/07 12:57:57;;;;;;;;;;;;;;;;;;;;;
2023/08/07 13:00:55;;;;;;;;;;;;;;;;;;;;;
2023/08/07 13:10:17;;;;;;;19.67;3.75;;;16.90;1.00;;;;;;6075482;23;20033;-95
2023/08/07 13:16:24;;;;;;;7.63;3.05;;;17.20;1.00;;;;;;6058304;23;20027;-91
2023/08/07 13:19:18;;;;;;;;;;;;;;;;;;;;;
2023/08/07 13:22:06;;;;;;;;;;;;;;;;;;;;;
2023/08/07 13:25:03;;;;;;;4.93;2.70;;;17.80;1.00;;;;;;6073019;23;20014;-91
2023/08/07 13:27:55;;;;;;;3.70;1.85;;;17.80;1.00;;;;;;6033903;23;20021;-92
2023/08/07 13:30:36;;;;;;;;;;;;;;;;;;;;;
2023/08/07 13:43:38;;;;;;;6.60;2.38;;;17.40;99.90;;;;;;6072317;23;20030;-95
2023/08/07 13:47:17;;;;;;;;;;;;;;;;;;;;;
2023/08/07 13:50:34;;;;;;;3.85;2.20;;;17.30;99.90;;;;;;6013074;23;20019;-93
2023/08/07 13:59:05;;;;;;;5.18;3.00;;;17.50;99.90;;;;;;5978818;23;20020;-93